createdAt,value
2023-03-20T00:00:10.156Z,953.5
2023-03-20T00:01:12.081Z,953.5
2023-03-20T00:02:14.034Z,953.5
2023-03-20T00:03:15.890Z,953.5
2023-03-20T00:04:18.077Z,953.5
2023-03-20T00:05:20.025Z,953.4
2023-03-20T00:06:21.856Z,953.5
2023-03-20T00:07:23.665Z,953.5
2023-03-20T00:08:29.755Z,953.5
2023-03-20T00:09:31.593Z,953.4
2023-03-20T00:10:33.444Z,953.4
2023-03-20T00:11:35.224Z,953.4
2023-03-20T00:12:37.049Z,953.4
2023-03-20T00:13:38.992Z,953.4
2023-03-20T00:14:40.919Z,953.3
2023-03-20T00:15:43.068Z,953.3
2023-03-20T00:16:45.055Z,953.3
2023-03-20T00:17:46.902Z,953.3
2023-03-20T00:18:48.862Z,953.3
2023-03-20T00:19:50.713Z,953.3
2023-03-20T00:20:52.559Z,953.3
2023-03-20T00:21:54.427Z,953.3
2023-03-20T00:22:56.254Z,953.3
2023-03-20T00:23:58.105Z,953.3
2023-03-20T00:24:59.963Z,953.3
2023-03-20T00:26:01.909Z,953.3
2023-03-20T00:27:03.828Z,953.3
2023-03-20T00:28:05.608Z,953.3
2023-03-20T00:29:07.461Z,953.2
2023-03-20T00:30:09.311Z,953.2
2023-03-20T00:31:11.412Z,953.2
2023-03-20T00:32:13.454Z,953.2
2023-03-20T00:33:15.607Z,953.2
2023-03-20T00:34:17.424Z,953.2
2023-03-20T00:35:19.189Z,953.2
2023-03-20T00:36:21.063Z,953.2
2023-03-20T00:37:22.887Z,953.2
2023-03-20T00:38:24.805Z,953.2
2023-03-20T00:39:26.696Z,953.2
2023-03-20T00:40:28.534Z,953.2
2023-03-20T00:41:30.477Z,953.2
2023-03-20T00:42:32.228Z,953.2
2023-03-20T00:43:34.082Z,953.2
2023-03-20T00:44:35.941Z,953.2
2023-03-20T00:45:38.507Z,953.2
2023-03-20T00:46:40.728Z,953.2
2023-03-20T00:47:42.783Z,953.2
2023-03-20T00:48:44.668Z,953.2
2023-03-20T00:49:46.717Z,953.2
2023-03-20T00:50:48.778Z,953.1
2023-03-20T00:51:50.655Z,953.2
2023-03-20T00:52:52.574Z,953.2
2023-03-20T00:53:54.421Z,953.1
2023-03-20T00:54:56.298Z,953.1
2023-03-20T00:55:58.199Z,953.1
2023-03-20T00:57:00.038Z,953.1
2023-03-20T00:58:02.031Z,953.1
2023-03-20T00:59:04.005Z,953.1
2023-03-20T01:00:05.946Z,953.1
2023-03-20T01:01:08.234Z,953.2
2023-03-20T01:02:10.375Z,953.1
2023-03-20T01:03:12.305Z,953.1
2023-03-20T01:04:14.166Z,953.1
2023-03-20T01:05:16.115Z,953.1
2023-03-20T01:06:17.963Z,953.1
2023-03-20T01:07:19.821Z,953.1
2023-03-20T01:08:21.771Z,953.1
2023-03-20T01:09:23.716Z,953
2023-03-20T01:10:25.637Z,953
2023-03-20T01:11:27.516Z,953
2023-03-20T01:12:29.466Z,953
2023-03-20T01:13:31.321Z,953
2023-03-20T01:14:33.169Z,953.1
2023-03-20T01:15:36.072Z,953
2023-03-20T01:16:38.539Z,953
2023-03-20T01:17:40.486Z,953
2023-03-20T01:18:42.316Z,953
2023-03-20T01:19:44.154Z,953
2023-03-20T01:20:46.080Z,953
2023-03-20T01:21:47.940Z,953
2023-03-20T01:22:49.928Z,953
2023-03-20T01:23:51.758Z,953
2023-03-20T01:24:53.716Z,953
2023-03-20T01:25:55.561Z,953
2023-03-20T01:26:57.412Z,953
2023-03-20T01:27:59.361Z,953
2023-03-20T01:29:01.209Z,953
2023-03-20T01:30:03.056Z,953
2023-03-20T01:31:04.919Z,953.1
2023-03-20T01:32:07.044Z,953
2023-03-20T01:33:09.288Z,953
2023-03-20T01:34:11.286Z,953
2023-03-20T01:35:13.128Z,953
2023-03-20T01:36:15.350Z,953.1
2023-03-20T01:37:17.442Z,953.1
2023-03-20T01:38:19.302Z,953.1
2023-03-20T01:39:21.246Z,953.1
2023-03-20T01:40:23.095Z,953.1
2023-03-20T01:41:25.048Z,953.1
2023-03-20T01:42:27.012Z,953
2023-03-20T01:43:28.852Z,953
2023-03-20T01:44:30.703Z,953
2023-03-20T01:45:32.552Z,953
2023-03-20T01:46:34.509Z,953.1
2023-03-20T01:47:36.474Z,953.1
2023-03-20T01:48:38.331Z,953.1
2023-03-20T01:49:40.269Z,953.1
2023-03-20T01:50:42.119Z,953.1
2023-03-20T01:51:43.959Z,953.1
2023-03-20T01:52:45.809Z,953.1
2023-03-20T01:53:47.659Z,953.1
2023-03-20T01:54:49.522Z,953.1
2023-03-20T01:55:51.462Z,953.1
2023-03-20T01:56:53.322Z,953.1
2023-03-20T01:57:55.170Z,953.1
2023-03-20T01:58:56.927Z,953.1
2023-03-20T01:59:58.860Z,953.1
2023-03-20T02:01:00.874Z,953.1
2023-03-20T02:02:02.874Z,953.1
2023-03-20T02:03:04.768Z,953.1
2023-03-20T02:04:06.709Z,953.1
2023-03-20T02:05:08.954Z,953.1
2023-03-20T02:06:11.004Z,953.1
2023-03-20T02:07:12.816Z,953.1
2023-03-20T02:08:14.918Z,953.1
2023-03-20T02:09:16.765Z,953.1
2023-03-20T02:10:18.697Z,953.1
2023-03-20T02:11:20.652Z,953
2023-03-20T02:12:22.509Z,953
2023-03-20T02:13:24.349Z,953
2023-03-20T02:14:26.198Z,953
2023-03-20T02:15:28.130Z,953
2023-03-20T02:16:30.237Z,953
2023-03-20T02:17:32.060Z,953
2023-03-20T02:18:34.024Z,952.9
2023-03-20T02:19:35.898Z,953
2023-03-20T02:20:37.711Z,953
2023-03-20T02:21:39.431Z,952.9
2023-03-20T02:22:41.306Z,953
2023-03-20T02:23:43.160Z,953
2023-03-20T02:24:45.012Z,953
2023-03-20T02:25:46.938Z,953
2023-03-20T02:26:48.867Z,953.1
2023-03-20T02:27:50.865Z,953
2023-03-20T02:28:52.711Z,953
2023-03-20T02:29:54.567Z,953.1
2023-03-20T02:30:56.572Z,953
2023-03-20T02:31:58.568Z,953.1
2023-03-20T02:33:00.885Z,953.1
2023-03-20T02:34:02.909Z,953.1
2023-03-20T02:35:04.762Z,953.1
2023-03-20T02:36:09.756Z,953
2023-03-20T02:37:11.603Z,953.1
2023-03-20T02:38:13.668Z,953.1
2023-03-20T02:39:15.624Z,953
2023-03-20T02:40:17.492Z,953.1
2023-03-20T02:41:19.548Z,953.1
2023-03-20T02:42:21.781Z,953.1
2023-03-20T02:43:23.736Z,953
2023-03-20T02:44:25.618Z,953.1
2023-03-20T02:45:27.758Z,953.1
2023-03-20T02:46:29.879Z,953
2023-03-20T02:47:31.854Z,953.1
2023-03-20T02:48:33.814Z,953.1
2023-03-20T02:49:35.753Z,953.1
2023-03-20T02:50:37.558Z,953
2023-03-20T02:51:39.460Z,953
2023-03-20T02:52:41.435Z,953
2023-03-20T02:53:43.261Z,953
2023-03-20T02:54:45.107Z,953
2023-03-20T02:55:47.058Z,953
2023-03-20T02:56:48.917Z,953
2023-03-20T02:57:50.761Z,952.9
2023-03-20T02:58:52.711Z,952.9
2023-03-20T02:59:54.568Z,952.9
2023-03-20T03:00:56.521Z,952.9
2023-03-20T03:01:58.475Z,952.9
2023-03-20T03:03:00.565Z,952.9
2023-03-20T03:04:02.684Z,952.9
2023-03-20T03:05:04.639Z,952.8
2023-03-20T03:06:06.510Z,952.9
2023-03-20T03:07:08.439Z,952.9
2023-03-20T03:08:10.227Z,952.9
2023-03-20T03:09:12.032Z,952.9
2023-03-20T03:10:13.966Z,952.9
2023-03-20T03:11:15.866Z,952.9
2023-03-20T03:12:17.751Z,952.9
2023-03-20T03:13:19.738Z,952.9
2023-03-20T03:14:21.458Z,952.9
2023-03-20T03:15:23.342Z,952.9
2023-03-20T03:16:25.487Z,952.9
2023-03-20T03:17:27.453Z,952.9
2023-03-20T03:18:29.302Z,952.9
2023-03-20T03:19:31.143Z,952.9
2023-03-20T03:20:33.110Z,952.9
2023-03-20T03:21:35.201Z,952.9
2023-03-20T03:22:37.110Z,952.9
2023-03-20T03:23:39.066Z,952.9
2023-03-20T03:24:42.490Z,952.9
2023-03-20T03:25:44.475Z,952.9
2023-03-20T03:26:46.348Z,952.8
2023-03-20T03:27:48.205Z,952.8
2023-03-20T03:28:50.157Z,952.8
2023-03-20T03:29:51.997Z,952.8
2023-03-20T03:30:54.043Z,952.8
2023-03-20T03:31:55.913Z,952.8
2023-03-20T03:32:57.869Z,952.9
2023-03-20T03:33:59.878Z,952.9
2023-03-20T03:35:01.778Z,952.9
2023-03-20T03:36:03.952Z,952.9
2023-03-20T03:37:05.907Z,952.9
2023-03-20T03:38:07.728Z,952.9
2023-03-20T03:39:09.700Z,952.9
2023-03-20T03:40:11.628Z,952.9
2023-03-20T03:41:13.489Z,952.9
2023-03-20T03:42:15.403Z,952.9
2023-03-20T03:43:17.286Z,952.9
2023-03-20T03:44:19.239Z,952.9
2023-03-20T03:45:21.089Z,952.9
2023-03-20T03:46:23.198Z,952.9
2023-03-20T03:47:25.092Z,952.9
2023-03-20T03:48:26.942Z,952.9
2023-03-20T03:49:28.902Z,952.9
2023-03-20T03:50:30.736Z,953
2023-03-20T03:51:32.573Z,952.9
2023-03-20T03:52:34.364Z,953
2023-03-20T03:53:36.301Z,953
2023-03-20T03:54:38.145Z,952.9
2023-03-20T03:55:40.426Z,952.9
2023-03-20T03:56:42.463Z,952.9
2023-03-20T03:57:44.423Z,953
2023-03-20T03:58:46.367Z,953
2023-03-20T03:59:48.321Z,953
2023-03-20T04:00:50.162Z,953
2023-03-20T04:01:52.171Z,953
2023-03-20T04:02:54.183Z,953
2023-03-20T04:03:55.956Z,953
2023-03-20T04:04:58.147Z,952.9
2023-03-20T04:06:00.248Z,952.9
2023-03-20T04:07:02.236Z,952.9
2023-03-20T04:08:04.059Z,952.9
2023-03-20T04:09:05.999Z,952.9
2023-03-20T04:10:07.850Z,952.9
2023-03-20T04:11:09.537Z,952.8
2023-03-20T04:12:11.445Z,952.9
2023-03-20T04:13:13.288Z,952.8
2023-03-20T04:14:15.139Z,952.8
2023-03-20T04:15:17.000Z,952.9
2023-03-20T04:16:18.973Z,952.8
2023-03-20T04:17:21.009Z,952.8
2023-03-20T04:18:22.790Z,952.8
2023-03-20T04:19:24.591Z,952.8
2023-03-20T04:20:26.443Z,952.8
2023-03-20T04:21:28.410Z,952.8
2023-03-20T04:22:30.221Z,952.8
2023-03-20T04:23:32.121Z,952.8
2023-03-20T04:24:33.953Z,952.8
2023-03-20T04:25:36.754Z,952.8
2023-03-20T04:26:38.974Z,952.8
2023-03-20T04:27:40.785Z,952.9
2023-03-20T04:28:42.588Z,952.8
2023-03-20T04:29:44.437Z,952.8
2023-03-20T04:30:46.384Z,952.8
2023-03-20T04:31:48.501Z,952.8
2023-03-20T04:32:50.637Z,952.8
2023-03-20T04:33:52.457Z,952.8
2023-03-20T04:34:54.300Z,952.8
2023-03-20T04:35:56.455Z,952.8
2023-03-20T04:36:58.452Z,952.8
2023-03-20T04:38:00.470Z,952.8
2023-03-20T04:39:02.350Z,952.8
2023-03-20T04:40:04.126Z,952.8
2023-03-20T04:41:05.916Z,952.7
2023-03-20T04:42:07.860Z,952.7
2023-03-20T04:43:09.722Z,952.7
2023-03-20T04:44:11.561Z,952.8
2023-03-20T04:45:13.505Z,952.8
2023-03-20T04:46:15.592Z,952.8
2023-03-20T04:47:17.622Z,952.8
2023-03-20T04:48:19.472Z,952.8
2023-03-20T04:49:21.317Z,952.8
2023-03-20T04:50:23.173Z,952.8
2023-03-20T04:51:25.029Z,952.8
2023-03-20T04:52:26.975Z,952.9
2023-03-20T04:53:28.932Z,952.9
2023-03-20T04:54:30.806Z,952.9
2023-03-20T04:55:32.696Z,952.9
2023-03-20T04:56:34.608Z,952.9
2023-03-20T04:57:36.534Z,953
2023-03-20T04:58:38.382Z,953
2023-03-20T04:59:40.347Z,953
2023-03-20T05:00:42.314Z,953
2023-03-20T05:01:44.239Z,953
2023-03-20T05:02:46.100Z,953
2023-03-20T05:03:48.179Z,953
2023-03-20T05:04:49.987Z,953
2023-03-20T05:05:51.764Z,953
2023-03-20T05:06:53.599Z,953
2023-03-20T05:07:55.435Z,953.1
2023-03-20T05:08:57.402Z,953.1
2023-03-20T05:09:59.379Z,953.1
2023-03-20T05:11:01.163Z,953.2
2023-03-20T05:12:03.141Z,953.2
2023-03-20T05:13:05.009Z,953.2
2023-03-20T05:14:06.861Z,953.2
2023-03-20T05:15:08.727Z,953.2
2023-03-20T05:16:10.646Z,953.2
2023-03-20T05:17:12.490Z,953.2
2023-03-20T05:18:14.454Z,953.2
2023-03-20T05:19:16.308Z,953.2
2023-03-20T05:20:18.143Z,953.2
2023-03-20T05:21:20.214Z,953.2
2023-03-20T05:22:22.061Z,953.2
2023-03-20T05:23:23.908Z,953.2
2023-03-20T05:24:25.753Z,953.2
2023-03-20T05:25:27.594Z,953.3
2023-03-20T05:26:29.458Z,953.3
2023-03-20T05:27:31.399Z,953.3
2023-03-20T05:28:33.252Z,953.3
2023-03-20T05:29:35.205Z,953.3
2023-03-20T05:30:37.417Z,953.3
2023-03-20T05:31:39.224Z,953.3
2023-03-20T05:32:41.194Z,953.3
2023-03-20T05:33:43.233Z,953.3
2023-03-20T05:34:45.179Z,953.3
2023-03-20T05:35:47.163Z,953.3
2023-03-20T05:36:49.079Z,953.3
2023-03-20T05:37:51.041Z,953.4
2023-03-20T05:38:52.890Z,953.4
2023-03-20T05:39:54.724Z,953.3
2023-03-20T05:40:56.609Z,953.4
2023-03-20T05:41:58.457Z,953.3
2023-03-20T05:43:00.387Z,953.4
2023-03-20T05:44:02.454Z,953.4
2023-03-20T05:45:04.291Z,953.3
2023-03-20T05:46:06.474Z,953.3
2023-03-20T05:47:08.513Z,953.3
2023-03-20T05:48:10.359Z,953.3
2023-03-20T05:49:12.218Z,953.3
2023-03-20T05:50:14.068Z,953.3
2023-03-20T05:51:15.899Z,953.3
2023-03-20T05:52:17.748Z,953.3
2023-03-20T05:53:19.602Z,953.3
2023-03-20T05:54:21.692Z,953.3
2023-03-20T05:55:23.501Z,953.3
2023-03-20T05:56:25.503Z,953.3
2023-03-20T05:57:27.517Z,953.4
2023-03-20T05:58:29.489Z,953.4
2023-03-20T05:59:31.341Z,953.4
2023-03-20T06:00:33.175Z,953.4
2023-03-20T06:01:35.144Z,953.4
2023-03-20T06:02:37.189Z,953.4
2023-03-20T06:03:39.490Z,953.4
2023-03-20T06:04:41.391Z,953.4
2023-03-20T06:05:43.352Z,953.3
2023-03-20T06:06:45.187Z,953.3
2023-03-20T06:07:47.058Z,953.3
2023-03-20T06:08:49.010Z,953.3
2023-03-20T06:09:50.858Z,953.3
2023-03-20T06:10:52.767Z,953.3
2023-03-20T06:11:54.673Z,953.3
2023-03-20T06:12:56.608Z,953.3
2023-03-20T06:13:58.359Z,953.3
2023-03-20T06:15:00.299Z,953.3
2023-03-20T06:16:02.472Z,953.3
2023-03-20T06:17:04.429Z,953.3
2023-03-20T06:18:06.282Z,953.2
2023-03-20T06:19:08.109Z,953.2
2023-03-20T06:20:10.084Z,953.3
2023-03-20T06:21:12.018Z,953.3
2023-03-20T06:22:13.880Z,953.3
2023-03-20T06:23:15.837Z,953.3
2023-03-20T06:24:17.780Z,953.3
2023-03-20T06:25:19.631Z,953.3
2023-03-20T06:26:21.694Z,953.3
2023-03-20T06:27:23.637Z,953.3
2023-03-20T06:28:25.397Z,953.3
2023-03-20T06:29:27.168Z,953.3
2023-03-20T06:30:28.946Z,953.3
2023-03-20T06:31:31.188Z,953.4
2023-03-20T06:32:33.418Z,953.4
2023-03-20T06:33:35.460Z,953.4
2023-03-20T06:34:37.202Z,953.4
2023-03-20T06:35:40.422Z,953.4
2023-03-20T06:36:45.828Z,953.4
2023-03-20T06:37:47.675Z,953.3
2023-03-20T06:38:49.474Z,953.3
2023-03-20T06:39:51.363Z,953.3
2023-03-20T06:40:53.316Z,953.4
2023-03-20T06:41:55.127Z,953.3
2023-03-20T06:42:57.047Z,953.3
2023-03-20T06:43:58.871Z,953.3
2023-03-20T06:45:00.632Z,953.3
2023-03-20T06:46:02.470Z,953.3
2023-03-20T06:47:04.320Z,953.3
2023-03-20T06:48:06.263Z,953.3
2023-03-20T06:49:08.227Z,953.3
2023-03-20T06:50:10.070Z,953.3
2023-03-20T06:51:12.081Z,953.4
2023-03-20T06:52:14.096Z,953.4
2023-03-20T06:53:16.029Z,953.4
2023-03-20T06:54:17.982Z,953.4
2023-03-20T06:55:19.808Z,953.4
2023-03-20T06:56:21.791Z,953.3
2023-03-20T06:57:23.818Z,953.4
2023-03-20T06:58:25.719Z,953.3
2023-03-20T06:59:27.551Z,953.3
2023-03-20T07:00:29.391Z,953.3
2023-03-20T07:01:31.511Z,953.3
2023-03-20T07:02:33.510Z,953.2
2023-03-20T07:03:35.252Z,953.2
2023-03-20T07:04:37.198Z,953.2
2023-03-20T07:05:39.686Z,953.2
2023-03-20T07:06:41.474Z,953.2
2023-03-20T07:07:43.290Z,953.2
2023-03-20T07:08:45.217Z,953.2
2023-03-20T07:09:46.998Z,953.2
2023-03-20T07:10:48.825Z,953.2
2023-03-20T07:11:50.560Z,953.2
2023-03-20T07:12:52.370Z,953.2
2023-03-20T07:13:54.410Z,953.2
2023-03-20T07:14:56.327Z,953.2
2023-03-20T07:16:05.767Z,953.2
2023-03-20T07:17:07.841Z,953.2
2023-03-20T07:18:09.702Z,953.2
2023-03-20T07:19:11.517Z,953.2
2023-03-20T07:20:13.358Z,953.2
2023-03-20T07:21:15.107Z,953.2
2023-03-20T07:22:16.840Z,953.2
2023-03-20T07:23:18.868Z,953.2
2023-03-20T07:24:20.571Z,953.2
2023-03-20T07:25:43.373Z,953.2
2023-03-20T07:26:45.237Z,953.1
2023-03-20T07:27:46.942Z,953.1
2023-03-20T07:28:48.908Z,953.2
2023-03-20T07:29:50.729Z,953.1
2023-03-20T07:30:52.536Z,953.1
2023-03-20T07:31:54.764Z,953.2
2023-03-20T07:32:57.115Z,953.1
2023-03-20T07:33:59.206Z,953.1
2023-03-20T07:35:01.083Z,953.1
2023-03-20T07:36:03.188Z,953
2023-03-20T07:37:05.088Z,953.1
2023-03-20T07:38:06.833Z,953.1
2023-03-20T07:39:08.777Z,953.1
2023-03-20T07:40:10.576Z,953.1
2023-03-20T07:41:12.465Z,953.1
2023-03-20T07:42:14.415Z,953.1
2023-03-20T07:43:16.374Z,953.1
2023-03-20T07:44:18.296Z,953.1
2023-03-20T07:45:20.324Z,953.1
2023-03-20T07:46:22.372Z,953.1
2023-03-20T07:47:24.392Z,953.1
2023-03-20T07:48:26.123Z,953.1
2023-03-20T07:49:28.013Z,953.1
2023-03-20T07:50:29.762Z,953.1
2023-03-20T07:51:31.584Z,953
2023-03-20T07:52:33.332Z,953
2023-03-20T07:53:35.282Z,953.1
2023-03-20T07:54:37.225Z,953.1
2023-03-20T07:55:39.366Z,953.1
2023-03-20T07:56:41.167Z,953.1
2023-03-20T07:57:43.007Z,953.1
2023-03-20T07:58:45.046Z,953.1
2023-03-20T07:59:46.891Z,953.1
2023-03-20T08:00:48.766Z,953.1
2023-03-20T08:01:50.585Z,953.1
2023-03-20T08:02:52.995Z,953.2
2023-03-20T08:03:55.534Z,953.1
2023-03-20T08:04:57.689Z,953.1
2023-03-20T08:05:59.954Z,953.2
2023-03-20T08:07:02.483Z,953.2
2023-03-20T08:08:04.764Z,953.2
2023-03-20T08:09:06.830Z,953.2
2023-03-20T08:10:08.711Z,953.2
2023-03-20T08:11:10.459Z,953.2
2023-03-20T08:12:12.273Z,953.2
2023-03-20T08:13:14.120Z,953.2
2023-03-20T08:14:16.171Z,953.2
2023-03-20T08:15:18.131Z,953.1
2023-03-20T08:16:20.242Z,953.1
2023-03-20T08:17:22.836Z,953.2
2023-03-20T08:18:25.124Z,953.1
2023-03-20T08:19:27.056Z,953.2
2023-03-20T08:20:28.848Z,953.2
2023-03-20T08:21:30.755Z,953.2
2023-03-20T08:22:32.464Z,953.2
2023-03-20T08:23:34.461Z,953.2
2023-03-20T08:24:36.361Z,953.2
2023-03-20T08:25:39.424Z,953.2
2023-03-20T08:26:41.245Z,953.2
2023-03-20T08:27:43.307Z,953.2
2023-03-20T08:28:50.893Z,953.2
2023-03-20T08:29:54.270Z,953.2
2023-03-20T08:30:56.447Z,953.2
2023-03-20T08:31:58.388Z,953.2
2023-03-20T08:33:00.390Z,953.2
2023-03-20T08:34:02.418Z,953.2
2023-03-20T08:35:04.438Z,953.2
2023-03-20T08:36:06.562Z,953.2
2023-03-20T08:37:08.666Z,953.2
2023-03-20T08:38:10.603Z,953.2
2023-03-20T08:39:12.578Z,953.3
2023-03-20T08:40:14.714Z,953.2
2023-03-20T08:41:16.588Z,953.3
2023-03-20T08:42:18.610Z,953.3
2023-03-20T08:43:20.478Z,953.2
2023-03-20T08:44:22.480Z,953.2
2023-03-20T08:45:24.376Z,953.2
2023-03-20T08:46:26.544Z,953.2
2023-03-20T08:47:28.527Z,953.2
2023-03-20T08:48:30.328Z,953.2
2023-03-20T08:49:32.080Z,953.2
2023-03-20T08:50:33.932Z,953.2
2023-03-20T08:51:35.738Z,953.1
2023-03-20T08:52:37.633Z,953.1
2023-03-20T08:53:39.605Z,953.1
2023-03-20T08:54:41.444Z,953.1
2023-03-20T08:55:43.291Z,953.1
2023-03-20T08:56:45.061Z,953.1
2023-03-20T08:57:46.973Z,953.1
2023-03-20T08:58:48.832Z,953.1
2023-03-20T08:59:50.699Z,953.1
2023-03-20T09:00:52.497Z,953.1
2023-03-20T09:01:54.412Z,953.1
2023-03-20T09:02:56.518Z,953.1
2023-03-20T09:03:58.538Z,953
2023-03-20T09:05:00.357Z,953
2023-03-20T09:06:02.247Z,953.1
2023-03-20T09:07:04.151Z,953
2023-03-20T09:08:05.958Z,953.1
2023-03-20T09:09:07.780Z,953
2023-03-20T09:10:09.598Z,953
2023-03-20T09:11:11.565Z,953
2023-03-20T09:12:13.333Z,953
2023-03-20T09:13:28.264Z,952.9
2023-03-20T09:14:30.122Z,952.9
2023-03-20T09:15:32.047Z,952.9
2023-03-20T09:16:34.064Z,952.9
2023-03-20T09:17:36.056Z,952.9
2023-03-20T09:18:37.942Z,952.8
2023-03-20T09:19:39.764Z,952.9
2023-03-20T09:20:41.605Z,952.9
2023-03-20T09:21:43.401Z,952.9
2023-03-20T09:22:45.116Z,952.9
2023-03-20T09:23:46.856Z,952.9
2023-03-20T09:24:48.716Z,952.9
2023-03-20T09:25:50.577Z,952.9
2023-03-20T09:26:52.399Z,952.9
2023-03-20T09:27:54.174Z,952.8
2023-03-20T09:28:55.961Z,952.8
2023-03-20T09:29:57.773Z,952.8
2023-03-20T09:30:59.825Z,952.8
2023-03-20T09:32:01.769Z,952.8
2023-03-20T09:33:04.074Z,952.8
2023-03-20T09:34:06.187Z,952.8
2023-03-20T09:35:08.019Z,952.8
2023-03-20T09:36:10.003Z,952.8
2023-03-20T09:37:11.903Z,952.8
2023-03-20T09:38:13.796Z,952.7
2023-03-20T09:39:15.538Z,952.7
2023-03-20T09:40:17.284Z,952.7
2023-03-20T09:41:19.032Z,952.7
2023-03-20T09:42:21.008Z,952.7
2023-03-20T09:43:22.829Z,952.7
2023-03-20T09:44:24.641Z,952.7
2023-03-20T09:45:26.522Z,952.6
2023-03-20T09:46:28.612Z,952.6
2023-03-20T09:47:30.487Z,952.6
2023-03-20T09:48:32.381Z,952.6
2023-03-20T09:49:34.261Z,952.5
2023-03-20T09:50:37.262Z,952.5
2023-03-20T09:51:39.698Z,952.4
2023-03-20T09:52:41.534Z,952.4
2023-03-20T09:53:43.398Z,952.5
2023-03-20T09:54:55.375Z,952.4
2023-03-20T09:55:57.400Z,952.4
2023-03-20T09:56:59.275Z,952.3
2023-03-20T09:58:01.195Z,952.3
2023-03-20T09:59:03.176Z,952.2
2023-03-20T10:00:05.115Z,952.2
2023-03-20T10:01:07.006Z,952.2
2023-03-20T10:02:09.085Z,952.2
2023-03-20T10:03:11.045Z,952.2
2023-03-20T10:04:13.101Z,952.1
2023-03-20T10:05:15.013Z,952.1
2023-03-20T10:06:16.941Z,952.1
2023-03-20T10:07:18.679Z,952.1
2023-03-20T10:08:20.686Z,952.1
2023-03-20T10:09:22.492Z,952.1
2023-03-20T10:10:24.444Z,952
2023-03-20T10:11:26.312Z,952
2023-03-20T10:12:28.136Z,952
2023-03-20T10:13:29.987Z,951.9
2023-03-20T10:14:32.057Z,951.9
2023-03-20T10:15:33.998Z,951.9
2023-03-20T10:16:36.147Z,951.9
2023-03-20T10:17:38.142Z,951.9
2023-03-20T10:18:40.055Z,951.9
2023-03-20T10:19:41.852Z,951.8
2023-03-20T10:20:43.802Z,951.9
2023-03-20T10:21:45.601Z,951.8
2023-03-20T10:22:47.455Z,951.8
2023-03-20T10:23:49.420Z,951.8
2023-03-20T10:24:51.263Z,951.8
2023-03-20T10:25:53.140Z,951.8
2023-03-20T10:26:54.874Z,951.8
2023-03-20T10:27:56.713Z,951.8
2023-03-20T10:28:58.678Z,951.8
2023-03-20T10:30:00.510Z,951.8
2023-03-20T10:31:02.756Z,951.7
2023-03-20T10:32:04.638Z,951.7
2023-03-20T10:33:06.833Z,951.7
2023-03-20T10:34:09.776Z,951.7
2023-03-20T10:35:11.541Z,951.7
2023-03-20T10:36:13.583Z,951.7
2023-03-20T10:37:19.699Z,951.7
2023-03-20T10:38:21.455Z,951.7
2023-03-20T10:39:23.259Z,951.7
2023-03-20T10:40:25.164Z,951.6
2023-03-20T10:41:27.004Z,951.6
2023-03-20T10:42:28.747Z,951.6
2023-03-20T10:43:30.612Z,951.6
2023-03-20T10:44:32.486Z,951.6
2023-03-20T10:45:34.303Z,951.6
2023-03-20T10:46:36.348Z,951.6
2023-03-20T10:47:38.240Z,951.6
2023-03-20T10:48:40.171Z,951.5
2023-03-20T10:49:41.908Z,951.5
2023-03-20T10:50:43.618Z,951.5
2023-03-20T10:51:46.052Z,951.5
2023-03-20T10:52:48.490Z,951.5
2023-03-20T10:53:50.552Z,951.5
2023-03-20T10:54:52.386Z,951.4
2023-03-20T10:55:54.184Z,951.4
2023-03-20T10:56:56.112Z,951.4
2023-03-20T10:57:58.075Z,951.4
2023-03-20T10:58:59.910Z,951.4
2023-03-20T11:00:01.748Z,951.4
2023-03-20T11:01:04.139Z,951.3
2023-03-20T11:02:05.970Z,951.3
2023-03-20T11:03:07.741Z,951.3
2023-03-20T11:04:09.675Z,951.3
2023-03-20T11:05:11.618Z,951.3
2023-03-20T11:06:13.563Z,951.3
2023-03-20T11:07:15.408Z,951.3
2023-03-20T11:08:17.240Z,951.2
2023-03-20T11:09:19.225Z,951.3
2023-03-20T11:10:20.927Z,951.3
2023-03-20T11:11:22.864Z,951.3
2023-03-20T11:12:24.701Z,951.2
2023-03-20T11:13:26.504Z,951.2
2023-03-20T11:14:28.371Z,951.2
2023-03-20T11:15:30.313Z,951.2
2023-03-20T11:16:32.282Z,951.2
2023-03-20T11:17:34.115Z,951.1
2023-03-20T11:18:35.983Z,951.1
2023-03-20T11:19:37.824Z,951.1
2023-03-20T11:20:39.668Z,951.1
2023-03-20T11:21:41.629Z,951.1
2023-03-20T11:22:43.613Z,951.1
2023-03-20T11:23:45.423Z,951
2023-03-20T11:24:47.274Z,951
2023-03-20T11:25:49.165Z,951
2023-03-20T11:26:51.186Z,951
2023-03-20T11:27:53.122Z,951
2023-03-20T11:28:56.225Z,950.9
2023-03-20T11:29:57.990Z,951
2023-03-20T11:31:07.081Z,950.9
2023-03-20T11:32:09.310Z,950.9
2023-03-20T11:33:11.455Z,950.9
2023-03-20T11:34:13.354Z,950.9
2023-03-20T11:35:15.295Z,950.9
2023-03-20T11:36:17.090Z,950.9
2023-03-20T11:37:18.895Z,950.8
2023-03-20T11:38:20.886Z,950.8
2023-03-20T11:39:22.704Z,950.8
2023-03-20T11:40:24.590Z,950.8
2023-03-20T11:41:26.555Z,950.8
2023-03-20T11:42:28.457Z,950.8
2023-03-20T11:43:30.232Z,950.7
2023-03-20T11:44:31.940Z,950.7
2023-03-20T11:45:33.888Z,950.7
2023-03-20T11:46:35.892Z,950.6
2023-03-20T11:47:37.811Z,950.6
2023-03-20T11:48:39.559Z,950.6
2023-03-20T11:49:41.403Z,950.6
2023-03-20T11:50:43.155Z,950.6
2023-03-20T11:51:44.835Z,950.5
2023-03-20T11:52:46.593Z,950.5
2023-03-20T11:53:48.831Z,950.5
2023-03-20T11:54:50.811Z,950.5
2023-03-20T11:55:52.830Z,950.5
2023-03-20T11:56:54.775Z,950.4
2023-03-20T11:57:56.718Z,950.4
2023-03-20T11:58:58.587Z,950.4
2023-03-20T12:00:00.387Z,950.4
2023-03-20T12:01:02.165Z,950.4
2023-03-20T12:02:04.064Z,950.4
2023-03-20T12:03:06.091Z,950.4
2023-03-20T12:04:08.028Z,950.4
2023-03-20T12:05:16.720Z,950.3
2023-03-20T12:06:18.605Z,950.3
2023-03-20T12:07:20.435Z,950.3
2023-03-20T12:08:22.389Z,950.3
2023-03-20T12:09:24.388Z,950.3
2023-03-20T12:10:26.217Z,950.3
2023-03-20T12:11:30.322Z,950.3
2023-03-20T12:12:32.155Z,950.2
2023-03-20T12:13:34.111Z,950.2
2023-03-20T12:14:35.948Z,950.3
2023-03-20T12:15:38.023Z,950.2
2023-03-20T12:16:39.862Z,950.3
2023-03-20T12:17:41.803Z,950.2
2023-03-20T12:18:43.661Z,950.2
2023-03-20T12:19:45.611Z,950.2
2023-03-20T12:20:47.377Z,950.2
2023-03-20T12:21:49.201Z,950.1
2023-03-20T12:22:51.154Z,950.1
2023-03-20T12:23:53.021Z,950.1
2023-03-20T12:24:54.882Z,950.1
2023-03-20T12:25:56.758Z,950.1
2023-03-20T12:26:58.651Z,950.1
2023-03-20T12:28:00.456Z,950.1
2023-03-20T12:29:02.763Z,950.1
2023-03-20T12:30:05.154Z,950.1
2023-03-20T12:31:07.128Z,950.1
2023-03-20T12:32:09.046Z,950
2023-03-20T12:33:11.169Z,950.1
2023-03-20T12:34:13.047Z,950
2023-03-20T12:35:17.286Z,950
2023-03-20T12:36:19.182Z,950
2023-03-20T12:37:20.861Z,950
2023-03-20T12:38:22.798Z,950
2023-03-20T12:39:24.768Z,950
2023-03-20T12:40:29.183Z,950
2023-03-20T12:41:31.018Z,950
2023-03-20T12:42:32.731Z,949.9
2023-03-20T12:43:34.510Z,949.9
2023-03-20T12:44:36.362Z,949.9
2023-03-20T12:45:38.126Z,949.9
2023-03-20T12:46:40.577Z,949.9
2023-03-20T12:47:42.527Z,949.9
2023-03-20T12:48:44.292Z,949.9
2023-03-20T12:49:46.117Z,949.9
2023-03-20T12:50:47.973Z,949.8
2023-03-20T12:51:49.914Z,949.8
2023-03-20T12:52:51.624Z,949.8
2023-03-20T12:53:53.517Z,949.8
2023-03-20T12:54:55.477Z,949.7
2023-03-20T12:55:57.439Z,949.7
2023-03-20T12:56:59.310Z,949.8
2023-03-20T12:58:01.145Z,949.7
2023-03-20T12:59:02.869Z,949.7
2023-03-20T13:00:04.588Z,949.7
2023-03-20T13:01:06.462Z,949.7
2023-03-20T13:02:08.436Z,949.7
2023-03-20T13:03:10.646Z,949.6
2023-03-20T13:04:12.598Z,949.6
2023-03-20T13:05:14.481Z,949.6
2023-03-20T13:06:16.324Z,949.6
2023-03-20T13:07:18.181Z,949.6
2023-03-20T13:08:20.134Z,949.6
2023-03-20T13:09:21.852Z,949.6
2023-03-20T13:10:23.733Z,949.6
2023-03-20T13:11:25.714Z,949.6
2023-03-20T13:12:27.449Z,949.5
2023-03-20T13:13:29.378Z,949.6
2023-03-20T13:14:31.258Z,949.6
2023-03-20T13:15:33.189Z,949.5
2023-03-20T13:16:35.164Z,949.5
2023-03-20T13:17:37.041Z,949.5
2023-03-20T13:18:38.938Z,949.5
2023-03-20T13:19:40.763Z,949.5
2023-03-20T13:20:42.560Z,949.5
2023-03-20T13:21:44.403Z,949.4
2023-03-20T13:22:46.143Z,949.4
2023-03-20T13:23:47.878Z,949.4
2023-03-20T13:24:49.832Z,949.3
2023-03-20T13:25:51.782Z,949.4